Time;durP1;ratioP1;P1;durP2;ratioP2;P2;SDS_P1;SDS_P2;PMS_P1;PMS_P2;Temp;Humidity;BMP_temperature;BMP_pressure;BME280_temperature;BME280_humidity;BME280_pressure;Samples;Min_cycle;Max_cycle;Signal;HPM_P1;HPM_P2
2022/05/29 00:00:24;;;;;;;;;;;;;;;8.61;54.12;100694.09;5026480;28;19915;-25
2022/05/29 00:02:49;;;;;;;;;;;;;;;8.58;54.10;100692.31;5031961;28;20007;-24
2022/05/29 00:05:14;;;;;;;;;;;;;;;8.59;53.97;100686.22;5013445;28;19999;-25
2022/05/29 00:07:40;;;;;;;;;;;;;;;8.53;54.36;100686.22;5013669;28;20439;-25
2022/05/29 00:10:06;;;;;;;;;;;;;;;8.53;54.26;100683.56;5012658;28;19917;-25
2022/05/29 00:12:32;;;;;;;;;;;;;;;8.49;54.45;100687.06;5010038;28;20000;-25
2022/05/29 00:14:57;;;;;;;;;;;;;;;8.45;54.50;100680.03;5017900;28;20444;-25
2022/05/29 00:17:22;;;;;;;;;;;;;;;8.48;54.29;100682.69;5014038;28;20452;-25
2022/05/29 00:19:47;;;;;;;;;;;;;;;8.48;54.47;100685.31;5028597;28;19920;-25
2022/05/29 00:22:16;;;;;;;;;;;;;;;8.44;54.42;100683.56;5031892;28;19909;-25
2022/05/29 00:24:41;;;;;;;;;;;;;;;8.42;54.62;100680.03;5029537;28;20012;-25
2022/05/29 00:27:07;;;;;;;;;;;;;;;8.40;54.39;100680.03;5005141;28;20004;-25
2022/05/29 00:29:35;;;;;;;;;;;;;;;8.40;54.68;100676.56;5028454;28;19948;-25
2022/05/29 00:32:00;;;;;;;;;;;;;;;8.37;54.41;100676.56;5031822;28;19912;-25
2022/05/29 00:34:26;;;;;;;;;;;;;;;8.31;54.70;100667.78;5029938;28;20270;-25
2022/05/29 00:36:51;;;;;;;;;;;;;;;8.30;54.32;100679.16;5030482;28;19913;-25
2022/05/29 00:39:16;;;;;;;;;;;;;;;8.29;54.67;100672.16;4995194;28;19917;-25
2022/05/29 00:41:42;;;;;;;;;;;;;;;8.27;54.67;100668.66;5012285;28;19908;-24
2022/05/29 00:44:10;;;;;;;;;;;;;;;8.25;54.51;100659.00;5008777;28;19924;-25
2022/05/29 00:46:35;;;;;;;;;;;;;;;8.24;54.59;100659.91;5031687;28;20330;-25
2022/05/29 00:49:05;;;;;;;;;;;;;;;8.21;54.60;100656.38;5007822;28;19921;-25
2022/05/29 00:51:30;;;;;;;;;;;;;;;8.21;54.71;100660.78;5024438;28;19913;-25
2022/05/29 00:53:55;;;;;;;;;;;;;;;8.17;54.55;100654.63;5027447;28;19938;-25
2022/05/29 00:56:20;;;;;;;;;;;;;;;8.15;54.51;100651.16;5029077;28;19909;-25
2022/05/29 00:58:46;;;;;;;;;;;;;;;8.13;55.09;100652.88;5009506;28;19924;-25
2022/05/29 01:01:11;;;;;;;;;;;;;;;8.09;54.82;100646.75;5030575;28;19992;-25
2022/05/29 01:03:36;;;;;;;;;;;;;;;8.08;54.77;100644.97;5027848;28;19916;-25
2022/05/29 01:06:02;;;;;;;;;;;;;;;8.06;55.13;100632.72;5027027;28;20384;-25
2022/05/29 01:08:32;;;;;;;;;;;;;;;8.04;54.82;100643.22;5026904;28;19909;-25
2022/05/29 01:10:57;;;;;;;;;;;;;;;8.01;54.85;100638.00;5011796;28;19909;-25
2022/05/29 01:13:35;;;;;;;;;;;;;;;7.99;54.85;100634.50;5009771;28;19912;-25
2022/05/29 01:16:04;;;;;;;;;;;;;;;7.98;54.81;100640.63;5009134;28;19956;-25
2022/05/29 01:18:47;;;;;;;;;;;;;;;7.95;55.28;100627.47;4992798;28;19909;-25
2022/05/29 01:21:31;;;;;;;;;;;;;;;7.92;55.21;100637.97;5011562;28;19921;-25
2022/05/29 01:24:02;;;;;;;;;;;;;;;7.91;55.00;100633.59;5028452;28;19916;-25
2022/05/29 01:26:30;;;;;;;;;;;;;;;7.91;55.07;100638.84;5029784;28;19999;-25
2022/05/29 01:28:56;;;;;;;;;;;;;;;7.88;54.83;100630.97;5027837;28;19923;-25
2022/05/29 01:31:25;;;;;;;;;;;;;;;7.85;55.21;100636.22;5011948;28;19913;-25
2022/05/29 01:34:06;;;;;;;;;;;;;;;7.83;54.97;100626.59;5009932;28;19940;-25
2022/05/29 01:36:39;;;;;;;;;;;;;;;7.80;55.30;100631.84;5008615;28;19913;-25
2022/05/29 01:39:09;;;;;;;;;;;;;;;7.79;55.26;100632.72;5008963;28;20389;-25
2022/05/29 01:41:36;;;;;;;;;;;;;;;7.76;55.34;100632.69;5006114;28;20003;-25
2022/05/29 01:44:07;;;;;;;;;;;;;;;7.75;55.32;100630.97;5010900;28;19913;-25
2022/05/29 01:46:33;;;;;;;;;;;;;;;7.74;55.27;100620.44;5011250;28;20391;-25
2022/05/29 01:48:58;;;;;;;;;;;;;;;7.72;55.50;100624.81;4987856;28;19917;-25
2022/05/29 01:51:25;;;;;;;;;;;;;;;7.70;55.56;100622.19;5030334;28;19920;-25
2022/05/29 01:54:09;;;;;;;;;;;;;;;7.65;55.58;100624.81;5004188;28;20384;-25
2022/05/29 01:56:35;;;;;;;;;;;;;;;7.61;55.55;100623.06;5024863;28;20292;-25
2022/05/29 01:59:05;;;;;;;;;;;;;;;7.63;55.43;100620.41;5006469;28;19917;-25
2022/05/29 02:01:31;;;;;;;;;;;;;;;7.60;55.28;100615.19;4995953;28;19924;-25
2022/05/29 02:03:57;;;;;;;;;;;;;;;7.57;55.82;100616.91;5010627;28;19958;-25
2022/05/29 02:06:27;;;;;;;;;;;;;;;7.56;55.80;100615.16;5012006;28;19909;-25
2022/05/29 02:09:00;;;;;;;;;;;;;;;7.55;55.95;100618.66;5009716;28;19952;-25
2022/05/29 02:11:26;;;;;;;;;;;;;;;7.53;55.18;100609.91;5010920;28;19924;-25
2022/05/29 02:13:57;;;;;;;;;;;;;;;7.52;55.80;100602.91;5010681;28;20003;-25
2022/05/29 02:16:37;;;;;;;;;;;;;;;7.52;55.93;100608.16;5013171;28;20227;-25
2022/05/29 02:19:06;;;;;;;;;;;;;;;7.49;55.97;100608.16;4993063;28;19935;-25
2022/05/29 02:21:34;;;;;;;;;;;;;;;7.50;55.79;100609.03;5027651;28;20281;-24
2022/05/29 02:24:00;;;;;;;;;;;;;;;7.50;56.03;100609.03;5007900;28;20433;-25
2022/05/29 02:26:26;;;;;;;;;;;;;;;7.50;56.30;100603.78;5003370;28;19917;-25
2022/05/29 02:28:53;;;;;;;;;;;;;;;7.51;55.81;100602.91;5009898;28;19913;-25
2022/05/29 02:31:19;;;;;;;;;;;;;;;7.48;56.11;100595.00;5008172;28;19960;-25
2022/05/29 02:33:44;;;;;;;;;;;;;;;7.49;56.18;100602.91;5024959;28;19916;-25
2022/05/29 02:36:23;;;;;;;;;;;;;;;7.50;56.02;100604.63;5027468;28;19992;-25
2022/05/29 02:38:54;;;;;;;;;;;;;;;7.51;56.18;100601.16;5013191;28;19912;-25
2022/05/29 02:41:42;;;;;;;;;;;;;;;7.50;55.96;100604.63;5024894;28;19924;-25
2022/05/29 02:44:10;;;;;;;;;;;;;;;7.49;56.12;100595.03;5015905;28;19920;-25
2022/05/29 02:46:49;;;;;;;;;;;;;;;7.50;56.17;100599.38;5026629;28;19917;-25
2022/05/29 02:49:20;;;;;;;;;;;;;;;7.50;55.93;100596.75;5008503;28;19967;-25
2022/05/29 02:51:49;;;;;;;;;;;;;;;7.49;56.17;100600.28;4993580;28;19915;-25
2022/05/29 02:54:28;;;;;;;;;;;;;;;7.50;56.35;100594.13;5006396;28;19913;-25
2022/05/29 02:56:53;;;;;;;;;;;;;;;7.50;56.41;100598.53;4993015;28;19914;-24
2022/05/29 02:59:19;;;;;;;;;;;;;;;7.52;56.59;100594.16;5027687;28;19916;-25
2022/05/29 03:01:56;;;;;;;;;;;;;;;7.52;56.23;100592.41;5008741;28;20273;-25
2022/05/29 03:04:40;;;;;;;;;;;;;;;7.51;56.42;100585.41;5011320;28;20348;-25
2022/05/29 03:07:11;;;;;;;;;;;;;;;7.52;56.54;100589.78;5025787;28;20296;-25
2022/05/29 03:09:36;;;;;;;;;;;;;;;7.52;56.20;100581.03;5009005;28;19972;-25
2022/05/29 03:12:02;;;;;;;;;;;;;;;7.51;56.40;100577.53;5028734;28;20452;-25
2022/05/29 03:14:34;;;;;;;;;;;;;;;7.53;56.53;100594.16;5014820;28;19923;-25
2022/05/29 03:17:09;;;;;;;;;;;;;;;7.52;56.54;100586.28;5015127;28;20368;-25
2022/05/29 03:19:49;;;;;;;;;;;;;;;7.54;56.52;100585.41;5014188;28;19921;-25
2022/05/29 03:22:23;;;;;;;;;;;;;;;7.57;56.42;100590.66;5031569;28;19909;-25
2022/05/29 03:24:55;;;;;;;;;;;;;;;7.61;56.72;100586.31;5010228;28;20000;-25
2022/05/29 03:27:26;;;;;;;;;;;;;;;7.62;56.57;100581.91;5032667;28;19919;-25
2022/05/29 03:29:53;;;;;;;;;;;;;;;7.65;56.80;100584.56;5013070;28;20341;-25
2022/05/29 03:32:18;;;;;;;;;;;;;;;7.66;56.42;100578.41;5016026;28;19913;-25
2022/05/29 03:34:44;;;;;;;;;;;;;;;7.68;56.71;100581.94;5015230;28;20261;-25
2022/05/29 03:37:09;;;;;;;;;;;;;;;7.69;56.78;100578.44;5013915;28;19915;-25
2022/05/29 03:39:34;;;;;;;;;;;;;;;7.70;56.64;100581.06;5030559;28;20088;-25
2022/05/29 03:41:59;;;;;;;;;;;;;;;7.71;57.20;100581.94;5031373;28;19955;-25
2022/05/29 03:44:25;;;;;;;;;;;;;;;7.73;56.97;100574.94;5014877;28;20348;-24
2022/05/29 03:46:50;;;;;;;;;;;;;;;7.76;57.05;100574.94;5032249;28;19908;-25
2022/05/29 03:49:18;;;;;;;;;;;;;;;7.76;57.37;100569.69;5028340;28;20385;-25
2022/05/29 03:51:43;;;;;;;;;;;;;;;7.78;57.40;100572.31;5025391;28;20211;-25
2022/05/29 03:54:08;;;;;;;;;;;;;;;7.80;57.13;100571.44;5028951;28;20490;-25
2022/05/29 03:56:34;;;;;;;;;;;;;;;7.80;57.66;100571.44;5009203;28;19917;-24
2022/05/29 03:58:59;;;;;;;;;;;;;;;7.80;58.23;100566.19;5027518;28;19913;-25
2022/05/29 04:01:24;;;;;;;;;;;;;;;7.83;58.31;100571.44;5013990;28;19992;-25
2022/05/29 04:03:53;;;;;;;;;;;;;;;7.85;57.99;100562.69;5032114;28;19913;-24
2022/05/29 04:06:18;;;;;;;;;;;;;;;7.86;59.12;100567.06;5025248;28;19992;-25
2022/05/29 04:14:27;;;;;;;;;;;;;;;7.93;58.69;100567.06;5020803;28;20278;-25
2022/05/29 04:16:53;;;;;;;;;;;;;;;7.96;58.38;100568.81;5027264;28;19913;-25
2022/05/29 04:19:18;;;;;;;;;;;;;;;8.01;58.24;100567.09;5030156;28;19917;-24
2022/05/29 04:21:44;;;;;;;;;;;;;;;8.02;58.45;100568.84;5027316;28;20456;-24
2022/05/29 04:24:09;;;;;;;;;;;;;;;8.05;58.35;100571.47;5026788;28;19913;-25
2022/05/29 04:26:36;;;;;;;;;;;;;;;8.05;58.11;100563.59;4994958;28;20020;-25
2022/05/29 04:29:02;;;;;;;;;;;;;;;8.07;58.46;100560.97;5013639;28;19999;-25
2022/05/29 04:31:27;;;;;;;;;;;;;;;8.07;58.33;100564.44;5025378;28;20031;-25
2022/05/29 04:33:53;;;;;;;;;;;;;;;8.12;58.09;100558.31;5006747;28;19917;-25
2022/05/29 04:36:18;;;;;;;;;;;;;;;8.14;57.99;100554.78;5019430;28;19912;-25
2022/05/29 04:38:43;;;;;;;;;;;;;;;8.17;58.12;100561.81;5028280;28;19967;-25
2022/05/29 04:41:09;;;;;;;;;;;;;;;8.19;57.98;100550.44;5029053;28;20383;-24
2022/05/29 04:43:34;;;;;;;;;;;;;;;8.23;57.69;100548.66;5025719;28;20452;-25
2022/05/29 04:46:00;;;;;;;;;;;;;;;8.25;57.90;100544.28;5027805;28;19909;-25
2022/05/29 04:48:25;;;;;;;;;;;;;;;8.28;57.83;100543.41;5008700;28;21058;-25
2022/05/29 04:50:57;;;;;;;;;;;;;;;8.32;57.93;100547.78;5030221;28;19909;-25
2022/05/29 04:53:22;;;;;;;;;;;;;;;8.34;57.56;100540.78;5028833;28;19936;-25
2022/05/29 04:55:50;;;;;;;;;;;;;;;8.37;57.87;100546.00;5024767;28;19921;-25
2022/05/29 04:58:16;;;;;;;;;;;;;;;8.40;57.75;100539.88;5009194;28;19913;-25
2022/05/29 05:00:41;;;;;;;;;;;;;;;8.44;57.71;100541.63;5031021;28;19917;-24
2022/05/29 05:03:07;;;;;;;;;;;;;;;8.45;58.23;100548.63;5026708;28;19916;-25
2022/05/29 05:05:32;;;;;;;;;;;;;;;8.48;58.09;100538.13;5009479;28;19909;-24
2022/05/29 05:07:58;;;;;;;;;;;;;;;8.51;58.52;100538.09;5030275;28;19919;-25
2022/05/29 05:10:23;;;;;;;;;;;;;;;8.54;58.81;100543.38;5021883;28;19910;-25
2022/05/29 05:12:49;;;;;;;;;;;;;;;8.56;59.44;100546.88;5030423;28;19986;-24
2022/05/29 05:15:15;;;;;;;;;;;;;;;8.60;59.15;100540.72;5009187;28;20292;-24
2022/05/29 05:17:40;;;;;;;;;;;;;;;8.63;59.71;100541.63;5030769;28;19924;-25
2022/05/29 05:20:06;;;;;;;;;;;;;;;8.65;59.41;100534.59;5011589;28;19999;-25
2022/05/29 05:22:31;;;;;;;;;;;;;;;8.67;59.55;100531.06;5027902;28;19959;-24
2022/05/29 05:24:57;;;;;;;;;;;;;;;8.71;59.03;100534.56;5030120;28;19913;-24
2022/05/29 05:27:22;;;;;;;;;;;;;;;8.75;59.52;100523.16;5023077;28;19948;-25
2022/05/29 05:29:48;;;;;;;;;;;;;;;8.79;59.96;100532.78;5011911;28;19921;-25
2022/05/29 05:32:13;;;;;;;;;;;;;;;8.82;60.18;100529.25;5027258;28;19915;-25
2022/05/29 05:34:40;;;;;;;;;;;;;;;8.88;60.31;100536.25;5021025;28;19913;-25
2022/05/29 05:37:06;;;;;;;;;;;;;;;8.92;59.88;100528.34;5028814;28;19916;-25
2022/05/29 05:39:31;;;;;;;;;;;;;;;8.98;60.15;100532.72;5027745;28;20003;-24
2022/05/29 05:41:56;;;;;;;;;;;;;;;9.00;59.95;100525.66;5025996;28;19918;-24
2022/05/29 05:44:21;;;;;;;;;;;;;;;9.05;60.39;100523.91;5011148;28;20023;-24
2022/05/29 05:46:47;;;;;;;;;;;;;;;9.13;60.00;100525.63;5029162;28;19924;-24
2022/05/29 05:49:13;;;;;;;;;;;;;;;9.17;60.37;100527.34;5028685;28;19909;-24
2022/05/29 05:51:38;;;;;;;;;;;;;;;9.20;60.31;100529.94;5028768;28;19925;-25
2022/05/29 05:54:03;;;;;;;;;;;;;;;9.25;60.56;100525.53;5024810;28;19921;-25
2022/05/29 05:56:28;;;;;;;;;;;;;;;9.32;60.25;100526.38;5021950;28;19932;-25
2022/05/29 05:58:53;;;;;;;;;;;;;;;9.35;60.28;100526.34;5010904;28;20284;-25
2022/05/29 06:01:19;;;;;;;;;;;;;;;9.41;60.15;100521.06;5028083;28;19940;-24
2022/05/29 06:03:44;;;;;;;;;;;;;;;9.45;61.28;100527.16;5023980;28;19913;-25
2022/05/29 06:06:09;;;;;;;;;;;;;;;9.51;61.05;100524.50;4992171;28;19988;-24
2022/05/29 06:08:34;;;;;;;;;;;;;;;9.54;60.75;100527.09;5010948;28;19916;-24
2022/05/29 06:11:00;;;;;;;;;;;;;;;9.60;61.04;100531.44;5027802;28;19917;-24
2022/05/29 06:13:25;;;;;;;;;;;;;;;9.62;60.83;100532.31;5010830;28;20284;-25
2022/05/29 06:15:51;;;;;;;;;;;;;;;9.64;60.04;100525.28;5026317;28;19959;-25
2022/05/29 06:18:16;;;;;;;;;;;;;;;9.70;60.72;100524.38;5028251;28;20382;-25
2022/05/29 06:20:42;;;;;;;;;;;;;;;9.73;60.62;100524.31;5004509;28;19975;-25
2022/05/29 06:23:07;;;;;;;;;;;;;;;9.78;60.61;100522.53;5026888;28;19909;-24
2022/05/29 06:25:32;;;;;;;;;;;;;;;9.83;61.17;100533.91;5027029;28;19915;-25
2022/05/29 06:27:58;;;;;;;;;;;;;;;9.88;61.24;100525.97;5027185;28;20376;-25
2022/05/29 06:30:23;;;;;;;;;;;;;;;9.93;61.20;100525.91;5006545;28;19909;-25
2022/05/29 06:32:48;;;;;;;;;;;;;;;9.98;61.53;100524.97;4994113;28;19915;-25
2022/05/29 06:35:14;;;;;;;;;;;;;;;10.02;61.72;100528.47;5021847;28;19963;-25
2022/05/29 06:37:40;;;;;;;;;;;;;;;10.08;61.33;100517.00;5005760;28;19910;-25
2022/05/29 06:40:05;;;;;;;;;;;;;;;10.13;61.68;100526.63;5025412;28;19995;-24
2022/05/29 06:42:30;;;;;;;;;;;;;;;10.21;62.36;100528.31;5028175;28;19920;-25
2022/05/29 06:44:58;;;;;;;;;;;;;;;10.24;62.03;100525.66;5023960;28;19909;-25
2022/05/29 06:47:23;;;;;;;;;;;;;;;10.29;62.24;100521.19;5031071;28;19960;-25
2022/05/29 06:49:51;;;;;;;;;;;;;;;10.34;62.22;100524.63;5014282;28;19955;-24
2022/05/29 06:52:16;;;;;;;;;;;;;;;10.39;62.58;100527.25;5029470;28;19919;-25
2022/05/29 06:54:41;;;;;;;;;;;;;;;10.43;62.68;100526.31;5022247;28;19921;-25
2022/05/29 06:57:07;;;;;;;;;;;;;;;10.46;63.04;100522.78;5008888;28;19959;-25
2022/05/29 07:06:58;;;;;;;;;;;;;;;10.49;62.95;100526.28;5026503;28;19944;-25
2022/05/29 07:07:49;;;;;;;;;;;;;;;10.63;63.40;100526.13;5030486;28;20376;-25
2022/05/29 07:10:14;;;;;;;;;;;;;;;10.69;63.57;100534.84;5006199;28;19909;-25
2022/05/29 07:12:40;;;;;;;;;;;;;;;10.72;63.73;100534.81;5028007;28;19916;-24
2022/05/29 07:15:06;;;;;;;;;;;;;;;10.77;64.21;100543.53;4999861;28;19917;-25
2022/05/29 07:17:31;;;;;;;;;;;;;;;10.82;64.20;100539.09;5012598;28;19924;-25
2022/05/29 07:19:57;;;;;;;;;;;;;;;10.86;63.60;100535.53;5015177;28;19913;-25
2022/05/29 07:22:22;;;;;;;;;;;;;;;10.93;64.27;100538.09;5030030;28;19913;-25
2022/05/29 07:24:47;;;;;;;;;;;;;;;10.97;63.84;100542.44;5014329;28;19917;-25
2022/05/29 07:27:13;;;;;;;;;;;;;;;11.03;64.38;100539.69;5029727;28;19924;-25
2022/05/29 07:29:38;;;;;;;;;;;;;;;11.09;64.49;100536.09;5005332;28;19924;-25
2022/05/29 07:32:03;;;;;;;;;;;;;;;11.13;64.08;100541.34;5007955;28;20000;-25
2022/05/29 07:34:30;;;;;;;;;;;;;;;11.18;64.08;100536.00;5025226;28;19936;-25
2022/05/29 07:37:01;;;;;;;;;;;;;;;11.22;64.39;100535.06;5028231;28;19916;-24
2022/05/29 07:39:26;;;;;;;;;;;;;;;11.26;64.24;100535.88;5029614;28;19951;-25
2022/05/29 07:44:35;;;;;;;;;;;;;;;11.35;63.59;100534.88;5027477;28;20336;-25
2022/05/29 07:47:00;;;;;;;;;;;;;;;11.39;63.54;100536.56;5030140;28;20348;-25
2022/05/29 07:49:26;;;;;;;;;;;;;;;11.41;63.00;100525.09;5008776;28;19967;-24
2022/05/29 07:51:51;;;;;;;;;;;;;;;11.45;62.73;100531.22;5012354;28;19921;-25
2022/05/29 07:54:16;;;;;;;;;;;;;;;11.47;62.80;100534.69;5011395;28;20074;-25
2022/05/29 07:56:41;;;;;;;;;;;;;;;11.51;62.45;100538.19;5012919;28;19932;-25
2022/05/29 07:59:06;;;;;;;;;;;;;;;11.52;62.71;100534.63;5026501;28;20308;-25
2022/05/29 08:01:32;;;;;;;;;;;;;;;11.57;62.32;100540.69;5012595;28;19916;-25
2022/05/29 08:03:57;;;;;;;;;;;;;;;11.60;62.67;100540.66;5027337;28;19913;-25
2022/05/29 08:06:22;;;;;;;;;;;;;;;11.64;62.74;100542.34;5027376;28;19992;-25
2022/05/29 08:08:47;;;;;;;;;;;;;;;11.68;63.06;100549.34;5024369;28;21276;-25
2022/05/29 08:11:15;;;;;;;;;;;;;;;11.75;63.12;100536.03;5029423;28;20280;-26
2022/05/29 08:13:40;;;;;;;;;;;;;;;11.84;63.05;100537.66;5026454;28;19917;-25
2022/05/29 08:16:05;;;;;;;;;;;;;;;11.89;63.37;100549.91;5026434;28;19940;-25
2022/05/29 08:18:31;;;;;;;;;;;;;;;11.98;63.35;100545.34;5029072;28;20319;-25
2022/05/29 08:20:56;;;;;;;;;;;;;;;12.06;63.58;100540.84;5010406;28;19991;-25
2022/05/29 08:23:21;;;;;;;;;;;;;;;12.15;63.59;100548.63;5028926;28;19909;-25
2022/05/29 08:31:12;;;;;;;;;;;;;;;12.37;63.28;100537.63;5025706;28;20388;-25
2022/05/29 08:33:37;;;;;;;;;;;;;;;12.45;62.99;100541.00;5027379;28;19913;-25
2022/05/29 08:36:06;;;;;;;;;;;;;;;12.56;62.94;100532.88;5029098;28;19917;-25
2022/05/29 08:38:32;;;;;;;;;;;;;;;12.65;62.65;100526.53;5013042;28;20051;-25
2022/05/29 08:40:59;;;;;;;;;;;;;;;12.77;62.83;100529.84;5029321;28;19976;-25
2022/05/29 08:43:25;;;;;;;;;;;;;;;12.88;62.39;100527.84;5026348;28;19909;-25
2022/05/29 08:45:51;;;;;;;;;;;;;;;12.99;62.10;100530.25;5025476;28;19916;-25
2022/05/29 08:48:18;;;;;;;;;;;;;;;13.13;61.68;100532.59;5026699;28;19921;-25
2022/05/29 08:50:48;;;;;;;;;;;;;;;13.21;61.47;100527.13;5028653;28;20007;-25
2022/05/29 08:53:25;;;;;;;;;;;;;;;13.31;61.03;100519.84;5007670;28;19920;-25
2022/05/29 08:55:57;;;;;;;;;;;;;;;13.39;61.28;100517.88;5013122;28;19927;-25
2022/05/29 08:58:36;;;;;;;;;;;;;;;13.48;60.97;100516.81;5010591;28;19923;-25
2022/05/29 09:01:16;;;;;;;;;;;;;;;13.58;60.46;100517.47;5007863;28;19936;-25
2022/05/29 09:03:44;;;;;;;;;;;;;;;13.70;60.52;100517.19;5012202;28;19909;-25
2022/05/29 09:06:10;;;;;;;;;;;;;;;13.78;60.68;100513.47;5026511;28;19909;-25
2022/05/29 09:08:39;;;;;;;;;;;;;;;13.87;60.40;100518.53;5011647;28;19948;-25
2022/05/29 09:11:16;;;;;;;;;;;;;;;13.96;60.23;100505.03;5027191;28;19909;-25
2022/05/29 09:13:43;;;;;;;;;;;;;;;14.08;59.86;100505.63;5005963;28;19924;-25
2022/05/29 09:16:10;;;;;;;;;;;;;;;14.16;59.79;100513.38;5006970;28;19923;-26
2022/05/29 09:18:40;;;;;;;;;;;;;;;14.23;59.52;100507.88;5009972;28;20540;-26
2022/05/29 09:21:07;;;;;;;;;;;;;;;14.34;59.81;100506.72;5010797;28;20305;-26
2022/05/29 09:23:34;;;;;;;;;;;;;;;14.47;59.64;100508.09;5026084;28;20023;-26
2022/05/29 09:26:00;;;;;;;;;;;;;;;14.58;59.23;100509.59;4992346;28;19921;-26
2022/05/29 09:28:30;;;;;;;;;;;;;;;14.70;58.89;100509.22;5009082;28;20002;-26
2022/05/29 09:31:05;;;;;;;;;;;;;;;14.82;59.00;100501.84;5019867;28;19909;-26
2022/05/29 09:33:31;;;;;;;;;;;;;;;14.93;58.69;100502.41;5026080;28;19949;-26
2022/05/29 09:35:59;;;;;;;;;;;;;;;15.05;58.13;100497.63;5024028;28;19956;-26
2022/05/29 09:38:41;;;;;;;;;;;;;;;15.13;57.88;100493.84;4991550;28;19909;-26
2022/05/29 09:41:18;;;;;;;;;;;;;;;15.24;57.42;100490.81;5008914;28;20071;-26
2022/05/29 09:44:02;;;;;;;;;;;;;;;15.34;57.38;100493.22;5023667;28;19909;-26
2022/05/29 09:46:29;;;;;;;;;;;;;;;15.45;56.51;100491.06;5026601;28;19944;-26
2022/05/29 09:51:40;;;;;;;;;;;;;;;15.58;56.76;100482.69;5020788;28;19919;-26
2022/05/29 09:54:05;;;;;;;;;;;;;;;15.68;56.50;100478.81;5009095;28;20292;-26
2022/05/29 09:56:31;;;;;;;;;;;;;;;15.74;56.52;100480.41;5009543;28;19917;-26
2022/05/29 09:59:02;;;;;;;;;;;;;;;15.76;55.14;100479.41;5010159;28;19915;-26
2022/05/29 10:01:36;;;;;;;;;;;;;;;15.84;54.58;100483.63;5010408;28;19953;-26
2022/05/29 10:04:03;;;;;;;;;;;;;;;15.89;54.47;100476.34;5023364;28;19909;-26
2022/05/29 10:06:30;;;;;;;;;;;;;;;15.93;54.72;100475.31;5027755;28;19912;-26
2022/05/29 10:09:10;;;;;;;;;;;;;;;15.97;54.40;100468.13;5007769;28;19995;-26
2022/05/29 10:11:36;;;;;;;;;;;;;;;16.00;53.79;100471.53;5025767;28;19963;-26
2022/05/29 10:14:16;;;;;;;;;;;;;;;16.03;53.54;100475.88;5028244;28;19913;-26
2022/05/29 10:16:42;;;;;;;;;;;;;;;16.06;53.05;100472.25;5027571;28;19913;-26
2022/05/29 10:19:12;;;;;;;;;;;;;;;16.02;53.98;100467.06;5007946;28;20431;-26
2022/05/29 10:21:41;;;;;;;;;;;;;;;16.06;54.26;100469.56;5007889;28;19924;-26
2022/05/29 10:24:11;;;;;;;;;;;;;;;16.06;53.93;100461.59;5025203;28;19917;-26
2022/05/29 10:26:36;;;;;;;;;;;;;;;16.07;53.80;100461.53;5021359;28;19963;-26
2022/05/29 10:29:02;;;;;;;;;;;;;;;16.11;53.94;100467.66;5027001;28;19960;-26
2022/05/29 10:31:30;;;;;;;;;;;;;;;16.14;53.46;100455.09;5025656;28;20395;-26
2022/05/29 10:33:59;;;;;;;;;;;;;;;16.17;54.09;100467.41;5009622;28;20009;-26
2022/05/29 10:36:26;;;;;;;;;;;;;;;16.16;53.58;100455.91;5025651;28;19909;-26
2022/05/29 10:38:51;;;;;;;;;;;;;;;16.21;53.61;100455.72;5007328;28;19924;-26
2022/05/29 10:41:29;;;;;;;;;;;;;;;16.25;53.44;100453.84;5007720;28;19921;-26
2022/05/29 10:43:56;;;;;;;;;;;;;;;16.27;52.73;100458.16;5008198;28;19915;-26
2022/05/29 10:46:22;;;;;;;;;;;;;;;16.26;52.79;100450.25;5008044;28;19910;-26
2022/05/29 10:49:03;;;;;;;;;;;;;;;16.25;52.68;100454.72;5009729;28;20357;-26
2022/05/29 10:51:35;;;;;;;;;;;;;;;16.25;53.11;100449.41;5024176;28;19940;-26
2022/05/29 10:54:12;;;;;;;;;;;;;;;16.25;53.61;100456.50;5029069;28;19939;-26
2022/05/29 10:56:56;;;;;;;;;;;;;;;16.29;52.96;100443.03;5024419;28;20312;-26
2022/05/29 10:59:33;;;;;;;;;;;;;;;16.34;52.56;100447.31;5010870;28;19983;-26
2022/05/29 11:05:21;;;;;;;;;;;;;;;16.33;52.24;100445.56;5020067;28;20807;-26
2022/05/29 11:07:55;;;;;;;;;;;;;;;16.43;53.16;100441.63;5007971;28;19913;-26
2022/05/29 11:10:32;;;;;;;;;;;;;;;16.50;53.04;100444.94;5009691;28;19918;-26
2022/05/29 11:12:57;;;;;;;;;;;;;;;16.53;52.29;100440.38;5025885;28;20377;-26
2022/05/29 11:15:41;;;;;;;;;;;;;;;16.61;52.88;100433.91;5022893;28;19920;-26
2022/05/29 11:18:10;;;;;;;;;;;;;;;16.67;52.23;100433.63;5020443;28;19909;-26
2022/05/29 11:20:45;;;;;;;;;;;;;;;16.70;51.56;100438.84;5024757;28;19916;-26
2022/05/29 11:23:24;;;;;;;;;;;;;;;16.75;51.88;100431.56;5025652;28;20377;-26
2022/05/29 11:25:54;;;;;;;;;;;;;;;16.83;52.15;100419.72;5010127;28;20987;-26
2022/05/29 11:28:19;;;;;;;;;;;;;;;16.86;51.85;100417.81;5022167;28;19933;-26
2022/05/29 11:30:51;;;;;;;;;;;;;;;16.91;51.82;100421.16;5026285;28;19909;-26
2022/05/29 11:33:28;;;;;;;;;;;;;;;16.90;51.46;100418.56;5027089;28;19913;-26
2022/05/29 11:36:02;;;;;;;;;;;;;;;16.90;51.36;100414.09;5030495;28;20324;-26
2022/05/29 11:38:59;;;;;;;;;;;;;;;16.93;51.42;100419.31;5028255;28;19908;-26
2022/05/29 11:41:27;;;;;;;;;;;;;;;16.96;51.35;100413.00;4982878;28;20381;-26
2022/05/29 11:43:56;;;;;;;;;;;;;;;17.00;50.87;100409.28;5022704;28;19909;-26
2022/05/29 11:52:15;;;;;;;;;;;;;;;17.02;50.73;100399.44;5023624;28;19920;-26
2022/05/29 11:54:42;;;;;;;;;;;;;;;17.05;50.77;100403.75;5009749;28;19909;-26
2022/05/29 11:57:09;;;;;;;;;;;;;;;17.11;50.64;100395.53;5028989;28;19917;-26
2022/05/29 11:59:42;;;;;;;;;;;;;;;17.14;50.41;100405.22;5009172;28;19909;-25
2022/05/29 12:02:09;;;;;;;;;;;;;;;17.16;50.66;100403.34;5010962;28;19909;-25
2022/05/29 12:04:36;;;;;;;;;;;;;;;17.19;51.02;100403.22;5027295;28;19909;-25
2022/05/29 12:07:22;;;;;;;;;;;;;;;17.21;50.37;100406.72;5029164;28;19909;-25
2022/05/29 12:09:49;;;;;;;;;;;;;;;17.23;50.58;100394.19;5010607;28;20011;-25
2022/05/29 12:12:18;;;;;;;;;;;;;;;17.23;50.67;100394.19;5024243;28;19920;-25
2022/05/29 12:14:45;;;;;;;;;;;;;;;17.23;50.76;100396.84;5013448;28;19909;-25
2022/05/29 12:17:24;;;;;;;;;;;;;;;17.21;50.84;100406.72;5011567;28;19928;-25
2022/05/29 12:20:02;;;;;;;;;;;;;;;17.20;51.33;100404.97;5012484;28;19924;-25
2022/05/29 12:22:35;;;;;;;;;;;;;;;17.18;51.54;100409.50;5009679;28;20392;-25
2022/05/29 12:25:00;;;;;;;;;;;;;;;17.15;51.87;100398.97;5026705;28;20365;-25
2022/05/29 12:27:27;;;;;;;;;;;;;;;17.13;51.58;100415.00;5011028;28;20432;-25
2022/05/29 12:29:54;;;;;;;;;;;;;;;17.10;51.69;100409.78;5008243;28;19933;-25
2022/05/29 12:32:19;;;;;;;;;;;;;;;17.10;51.89;100411.63;5022874;28;19968;-25
2022/05/29 12:34:47;;;;;;;;;;;;;;;17.07;51.52;100409.91;5027617;28;20175;-25
2022/05/29 12:37:31;;;;;;;;;;;;;;;17.05;51.66;100401.97;5009994;28;19913;-25
2022/05/29 12:40:05;;;;;;;;;;;;;;;17.04;51.86;100388.72;5027211;28;20372;-25
2022/05/29 12:42:44;;;;;;;;;;;;;;;17.05;51.55;100390.44;5025240;28;20309;-25
2022/05/29 12:45:28;;;;;;;;;;;;;;;17.09;51.56;100376.09;5009494;28;19975;-25
2022/05/29 12:47:59;;;;;;;;;;;;;;;17.10;50.91;100374.31;5027619;28;20054;-25
2022/05/29 12:50:24;;;;;;;;;;;;;;;17.11;50.47;100379.56;5028435;28;19913;-25
2022/05/29 12:52:55;;;;;;;;;;;;;;;17.14;50.70;100368.78;5025104;28;19923;-25
2022/05/29 12:55:39;;;;;;;;;;;;;;;17.13;50.42;100367.03;5028485;28;19908;-25
2022/05/29 12:58:07;;;;;;;;;;;;;;;17.09;49.85;100370.78;5026201;28;20090;-25
2022/05/29 13:00:32;;;;;;;;;;;;;;;17.10;49.98;100361.84;5028467;28;19913;-25
2022/05/29 13:03:16;;;;;;;;;;;;;;;17.12;50.17;100367.09;5026783;28;19919;-25
2022/05/29 13:06:03;;;;;;;;;;;;;;;17.13;49.29;100356.38;4989937;28;19920;-25
2022/05/29 13:08:28;;;;;;;;;;;;;;;17.17;49.53;100358.00;5025755;28;19917;-25
2022/05/29 13:10:53;;;;;;;;;;;;;;;17.20;49.43;100362.31;5023525;28;19921;-25
2022/05/29 13:13:20;;;;;;;;;;;;;;;17.25;50.16;100362.13;5004216;28;19991;-25
2022/05/29 13:15:46;;;;;;;;;;;;;;;17.28;49.62;100365.53;5009290;28;19917;-25
2022/05/29 13:18:38;;;;;;;;;;;;;;;17.36;49.67;100357.22;5009888;28;19999;-25
2022/05/29 13:21:07;;;;;;;;;;;;;;;17.44;49.27;100357.75;5022770;28;19928;-25